createdAt,value
2023-02-12T00:01:07.683Z,96051.47
2023-02-12T00:03:34.180Z,96056.84
2023-02-12T00:06:02.266Z,96057.63
2023-02-12T00:08:28.747Z,96051.47
2023-02-12T00:10:55.259Z,96056.41
2023-02-12T00:13:21.730Z,96054.63
2023-02-12T00:15:48.286Z,96047.88
2023-02-12T00:18:14.727Z,96049.88
2023-02-12T00:20:41.217Z,96058.63
2023-02-12T00:23:08.074Z,96052.28
2023-02-12T00:25:34.896Z,96055.88
2023-02-12T00:28:01.419Z,96054.69
2023-02-12T00:30:27.913Z,96054.09
2023-02-12T00:32:55.147Z,96053.50
2023-02-12T00:35:21.615Z,96051.91
2023-02-12T00:37:49.916Z,96047.97
2023-02-12T00:40:16.511Z,96055.50
2023-02-12T00:42:43.033Z,96053.91
2023-02-12T00:45:09.772Z,96059.06
2023-02-12T00:47:36.213Z,96062.22
2023-02-12T00:50:02.695Z,96062.06
2023-02-12T00:52:29.152Z,96055.69
2023-02-12T00:54:55.577Z,96067.19
2023-02-12T00:57:22.061Z,96056.66
2023-02-12T00:59:49.407Z,96065.78
2023-02-12T01:02:18.113Z,96057.47
2023-02-12T01:04:46.704Z,96071.31
2023-02-12T01:07:13.262Z,96056.66
2023-02-12T01:09:39.724Z,96062.22
2023-02-12T01:12:07.139Z,96069.72
2023-02-12T01:14:33.690Z,96065.78
2023-02-12T01:17:00.186Z,96064.00
2023-02-12T01:19:27.799Z,96060.84
2023-02-12T01:21:54.257Z,96059.81
2023-02-12T01:24:20.723Z,96074.31
2023-02-12T01:26:47.191Z,96074.50
2023-02-12T01:29:13.667Z,96078.09
2023-02-12T01:31:40.606Z,96082.25
2023-02-12T01:34:07.732Z,96076.09
2023-02-12T01:36:34.649Z,96082.06
2023-02-12T01:39:02.967Z,96075.13
2023-02-12T01:41:33.391Z,96072.53
2023-02-12T01:44:17.518Z,96068.34
2023-02-12T01:46:48.250Z,96063.19
2023-02-12T01:49:44.016Z,96064.19
2023-02-12T01:52:20.697Z,96060.84
2023-02-12T01:54:48.491Z,96066.00
2023-02-12T01:57:17.406Z,96059.03
2023-02-12T01:59:48.424Z,96059.63
2023-02-12T02:02:14.882Z,96055.44
2023-02-12T02:04:45.826Z,96059.03
2023-02-12T02:07:12.653Z,96060.41
2023-02-12T02:09:40.278Z,96051.50
2023-02-12T02:12:26.294Z,96051.28
2023-02-12T02:14:59.930Z,96054.66
2023-02-12T02:17:54.295Z,96047.72
2023-02-12T02:20:52.585Z,96047.13
2023-02-12T02:23:56.060Z,96040.97
2023-02-12T02:26:31.588Z,96042.16
2023-02-12T02:29:35.922Z,96044.56
2023-02-12T02:32:09.206Z,96040.97
2023-02-12T02:34:52.366Z,96042.78
2023-02-12T02:37:24.526Z,96036.81
2023-02-12T02:39:56.174Z,96040.38
2023-02-12T02:42:35.821Z,96037.00
2023-02-12T02:45:15.428Z,96029.88
2023-02-12T02:47:51.368Z,96030.47
2023-02-12T02:50:23.008Z,96025.31
2023-02-12T02:52:59.444Z,96020.16
2023-02-12T02:55:32.430Z,96031.66
2023-02-12T02:58:20.665Z,96027.31
2023-02-12T03:01:06.034Z,96027.53
2023-02-12T03:03:37.813Z,96026.50
2023-02-12T03:06:10.669Z,96029.31
2023-02-12T03:08:44.747Z,96030.47
2023-02-12T03:11:19.248Z,96027.53
2023-02-12T03:13:52.489Z,96026.13
2023-02-12T03:16:22.642Z,96033.28
2023-02-12T03:19:17.001Z,96034.88
2023-02-12T03:21:51.821Z,96035.84
2023-02-12T03:24:31.681Z,96029.53
2023-02-12T03:27:07.003Z,96034.88
2023-02-12T03:29:33.519Z,96047.59
2023-02-12T03:32:16.931Z,96045.03
2023-02-12T03:35:02.679Z,96045.03
2023-02-12T03:37:35.566Z,96044.41
2023-02-12T03:40:16.022Z,96052.16
2023-02-12T03:43:00.381Z,96048.38
2023-02-12T03:45:43.851Z,96050.94
2023-02-12T03:48:22.896Z,96046.41
2023-02-12T03:50:58.647Z,96058.31
2023-02-12T03:53:29.598Z,96058.31
2023-02-12T03:56:11.762Z,96060.69
2023-02-12T03:58:41.183Z,96054.72
2023-02-12T04:01:08.569Z,96053.75
2023-02-12T04:03:35.366Z,96043.84
2023-02-12T04:06:01.823Z,96053.53
2023-02-12T04:08:30.952Z,96065.66
2023-02-12T04:11:25.352Z,96067.84
2023-02-12T04:14:13.123Z,96057.91
2023-02-12T04:17:00.110Z,96061.88
2023-02-12T04:19:51.774Z,96053.34
2023-02-12T04:22:28.001Z,96055.91
2023-02-12T04:25:09.837Z,96068.22
2023-02-12T04:27:50.689Z,96077.34
2023-02-12T04:30:35.102Z,96078.16
2023-02-12T04:33:05.141Z,96082.28
2023-02-12T04:35:37.099Z,96073.19
2023-02-12T04:38:22.917Z,96080.50
2023-02-12T04:40:50.427Z,96082.88
2023-02-12T04:43:27.064Z,96087.06
2023-02-12T04:45:53.834Z,96097.19
2023-02-12T04:48:20.481Z,96090.22
2023-02-12T04:50:46.899Z,96086.66
2023-02-12T04:53:13.755Z,96082.47
2023-02-12T04:55:40.248Z,96090.81
2023-02-12T04:58:07.049Z,96090.03
2023-02-12T05:00:33.647Z,96073.75
2023-02-12T05:03:00.110Z,96068.59
2023-02-12T05:05:26.616Z,96078.50
2023-02-12T05:07:53.142Z,96072.75
2023-02-12T05:10:19.781Z,96074.53
2023-02-12T05:12:46.302Z,96068.81
2023-02-12T05:15:12.754Z,96070.41
2023-02-12T05:17:39.353Z,96076.56
2023-02-12T05:20:06.510Z,96077.34
2023-02-12T05:22:33.029Z,96078.56
2023-02-12T05:24:59.463Z,96080.53
2023-02-12T05:27:25.955Z,96075.38
2023-02-12T05:29:52.410Z,96073.59
2023-02-12T05:32:19.001Z,96072.78
2023-02-12T05:34:45.488Z,96073.59
2023-02-12T05:37:11.930Z,96082.13
2023-02-12T05:39:38.573Z,96081.91
2023-02-12T05:42:05.037Z,96082.91
2023-02-12T05:44:31.548Z,96088.06
2023-02-12T05:46:57.981Z,96081.13
2023-02-12T05:49:24.406Z,96090.66
2023-02-12T05:51:50.914Z,96085.91
2023-02-12T05:54:17.451Z,96095.00
2023-02-12T05:56:46.609Z,96095.81
2023-02-12T05:59:16.597Z,96099.19
2023-02-12T06:01:45.472Z,96094.44
2023-02-12T06:04:19.639Z,96097.00
2023-02-12T06:06:46.463Z,96088.06
2023-02-12T06:09:13.784Z,96092.84
2023-02-12T06:11:40.817Z,96098.78
2023-02-12T06:14:09.335Z,96099.78
2023-02-12T06:16:35.991Z,96105.34
2023-02-12T06:19:05.719Z,96108.91
2023-02-12T06:21:33.437Z,96107.13
2023-02-12T06:23:59.975Z,96109.50
2023-02-12T06:26:26.499Z,96098.38
2023-02-12T06:28:53.219Z,96105.50
2023-02-12T06:31:28.756Z,96111.25
2023-02-12T06:33:57.828Z,96109.88
2023-02-12T06:36:25.436Z,96118.41
2023-02-12T06:38:52.705Z,96119.41
2023-02-12T06:41:20.095Z,96114.66
2023-02-12T06:43:46.620Z,96115.25
2023-02-12T06:46:14.565Z,96111.06
2023-02-12T06:48:41.147Z,96111.88
2023-02-12T06:51:16.812Z,96106.53
2023-02-12T06:53:44.539Z,96114.25
2023-02-12T06:56:13.440Z,96122.97
2023-02-12T06:58:41.168Z,96117.03
2023-02-12T07:01:13.836Z,96127.16
2023-02-12T07:03:41.587Z,96121.00
2023-02-12T07:06:09.212Z,96127.75
2023-02-12T07:08:36.141Z,96127.34
2023-02-12T07:11:03.535Z,96126.94
2023-02-12T07:13:30.190Z,96127.53
2023-02-12T07:15:56.995Z,96133.25
2023-02-12T07:18:23.719Z,96128.09
2023-02-12T07:20:50.137Z,96126.31
2023-02-12T07:23:16.585Z,96129.69
2023-02-12T07:25:43.014Z,96130.28
2023-02-12T07:28:09.477Z,96122.31
2023-02-12T07:30:35.986Z,96131.66
2023-02-12T07:33:02.484Z,96127.69
2023-02-12T07:35:28.959Z,96127.88
2023-02-12T07:37:55.393Z,96126.88
2023-02-12T07:40:21.833Z,96120.94
2023-02-12T07:42:53.561Z,96121.34
2023-02-12T07:45:20.040Z,96127.28
2023-02-12T07:47:46.479Z,96126.31
2023-02-12T07:50:13.019Z,96126.09
2023-02-12T07:52:39.477Z,96125.28
2023-02-12T07:55:06.368Z,96125.69
2023-02-12T07:57:34.832Z,96126.25
2023-02-12T08:00:01.328Z,96114.50
2023-02-12T08:02:27.867Z,96113.69
2023-02-12T08:04:58.156Z,96110.72
2023-02-12T08:07:25.068Z,96110.69
2023-02-12T08:09:51.709Z,96119.81
2023-02-12T08:12:18.926Z,96121.56
2023-02-12T08:14:45.448Z,96117.19
2023-02-12T08:17:11.951Z,96119.75
2023-02-12T08:19:38.386Z,96123.91
2023-02-12T08:22:06.463Z,96121.91
2023-02-12T08:24:33.120Z,96115.72
2023-02-12T08:26:59.597Z,96122.66
2023-02-12T08:29:29.431Z,96120.47
2023-02-12T08:31:59.085Z,96123.03
2023-02-12T08:34:31.645Z,96122.25
2023-02-12T08:36:58.915Z,96117.66
2023-02-12T08:39:26.883Z,96119.41
2023-02-12T08:41:58.518Z,96118.03
2023-02-12T08:44:25.912Z,96123.03
2023-02-12T08:46:53.195Z,96124.94
2023-02-12T08:49:22.691Z,96123.72
2023-02-12T08:51:52.428Z,96124.88
2023-02-12T08:54:22.321Z,96122.88
2023-02-12T08:56:48.788Z,96119.53
2023-02-12T08:59:16.639Z,96127.84
2023-02-12T09:01:44.023Z,96131.16
2023-02-12T09:04:17.841Z,96127.59
2023-02-12T09:06:45.545Z,96131.53
2023-02-12T09:09:12.009Z,96133.72
2023-02-12T09:11:38.577Z,96133.31
2023-02-12T09:14:07.707Z,96141.06
2023-02-12T09:16:35.968Z,96139.28
2023-02-12T09:19:03.393Z,96134.50
2023-02-12T09:21:30.107Z,96137.09
2023-02-12T09:23:56.851Z,96129.13
2023-02-12T09:26:27.888Z,96128.75
2023-02-12T09:28:55.444Z,96136.31
2023-02-12T09:31:32.510Z,96130.72
2023-02-12T09:34:05.142Z,96130.72
2023-02-12T09:36:32.872Z,96140.03
2023-02-12T09:39:00.442Z,96144.03
2023-02-12T09:41:32.669Z,96137.81
2023-02-12T09:44:22.998Z,96137.34
2023-02-12T09:47:02.746Z,96138.09
2023-02-12T09:49:57.004Z,96134.06
2023-02-12T09:52:28.182Z,96135.66
2023-02-12T09:54:56.030Z,96144.00
2023-02-12T09:57:34.568Z,96140.56
2023-02-12T10:00:07.790Z,96138.53
2023-02-12T10:02:39.508Z,96134.81
2023-02-12T10:05:16.031Z,96142.72
2023-02-12T10:08:01.281Z,96143.72
2023-02-12T10:10:51.666Z,96151.47
2023-02-12T10:13:43.588Z,96154.63
2023-02-12T10:16:20.013Z,96145.31
2023-02-12T10:19:03.905Z,96149.69
2023-02-12T10:21:47.819Z,96147.09
2023-02-12T10:24:34.366Z,96146.31
2023-02-12T10:27:17.124Z,96138.41
2023-02-12T10:29:47.311Z,96144.13
2023-02-12T10:32:24.632Z,96138.81
2023-02-12T10:34:52.619Z,96135.66
2023-02-12T10:37:37.150Z,96144.94
2023-02-12T10:40:16.569Z,96148.31
2023-02-12T10:42:46.727Z,96145.16
2023-02-12T10:45:16.107Z,96141.97
2023-02-12T10:47:44.280Z,96147.16
2023-02-12T10:50:19.653Z,96139.25
2023-02-12T10:52:56.095Z,96131.56
2023-02-12T10:55:36.939Z,96136.22
2023-02-12T10:58:05.036Z,96128.47
2023-02-12T11:00:35.094Z,96128.03
2023-02-12T11:03:03.471Z,96136.19
2023-02-12T11:05:33.344Z,96128.84
2023-02-12T11:08:00.371Z,96128.03
2023-02-12T11:10:38.807Z,96124.88
2023-02-12T11:13:05.512Z,96112.94
2023-02-12T11:15:47.892Z,96116.91
2023-02-12T11:18:26.648Z,96115.53
2023-02-12T11:21:00.029Z,96109.38
2023-02-12T11:23:30.027Z,96104.81
2023-02-12T11:26:03.721Z,96112.09
2023-02-12T11:28:31.930Z,96109.94
2023-02-12T11:31:02.008Z,96116.72
2023-02-12T11:33:33.320Z,96121.28
2023-02-12T11:36:06.698Z,96120.50
2023-02-12T11:38:37.556Z,96124.88
2023-02-12T11:41:09.166Z,96121.28
2023-02-12T11:43:39.495Z,96116.34
2023-02-12T11:46:08.586Z,96118.13
2023-02-12T11:48:39.039Z,96110.22
2023-02-12T11:51:09.144Z,96110.16
2023-02-12T11:53:40.572Z,96106.94
2023-02-12T11:56:10.191Z,96111.69
2023-02-12T11:58:37.652Z,96105.34
2023-02-12T12:01:09.921Z,96111.72
2023-02-12T12:03:44.236Z,96107.22
2023-02-12T12:06:29.647Z,96109.78
2023-02-12T12:09:03.500Z,96109.22
2023-02-12T12:11:58.046Z,96112.81
2023-02-12T12:14:29.514Z,96102.47
2023-02-12T12:17:22.677Z,96106.97
2023-02-12T12:20:06.720Z,96112.56
2023-02-12T12:23:00.733Z,96107.41
2023-02-12T12:25:55.961Z,96111.38
2023-02-12T12:28:42.163Z,96109.38
2023-02-12T12:31:17.119Z,96117.84
2023-02-12T12:33:54.961Z,96117.44
2023-02-12T12:36:51.738Z,96109.66
2023-02-12T12:39:29.061Z,96104.13
2023-02-12T12:42:19.810Z,96109.53
2023-02-12T12:45:20.781Z,96106.94
2023-02-12T12:48:19.265Z,96101.34
2023-02-12T12:51:04.511Z,96101.47
2023-02-12T12:54:08.515Z,96096.53
2023-02-12T12:56:49.287Z,96087.69
2023-02-12T12:59:44.075Z,96085.69
2023-02-12T13:02:19.257Z,96086.25
2023-02-12T13:05:08.818Z,96083.03
2023-02-12T13:07:57.627Z,96084.78
2023-02-12T13:10:36.570Z,96082.94
2023-02-12T13:13:26.316Z,96083.75
2023-02-12T13:16:14.064Z,96078.81
2023-02-12T13:18:53.302Z,96076.41
2023-02-12T13:21:47.198Z,96077.22
2023-02-12T13:24:33.870Z,96078.19
2023-02-12T13:27:23.261Z,96077.63
2023-02-12T13:29:55.025Z,96074.91
2023-02-12T13:32:29.055Z,96070.38
2023-02-12T13:34:57.499Z,96071.59
2023-02-12T13:37:44.778Z,96072.38
2023-02-12T13:40:21.055Z,96069.78
2023-02-12T13:43:06.097Z,96070.59
2023-02-12T13:45:49.270Z,96070.59
2023-02-12T13:48:21.113Z,96067.19
2023-02-12T13:51:01.515Z,96063.84
2023-02-12T13:53:52.077Z,96065.63
2023-02-12T13:56:41.086Z,96057.13
2023-02-12T13:59:41.090Z,96062.13
2023-02-12T14:02:44.379Z,96055.91
2023-02-12T14:05:29.909Z,96054.25
2023-02-12T14:08:01.889Z,96046.88
2023-02-12T14:10:35.796Z,96054.78
2023-02-12T14:13:23.132Z,96052.97
2023-02-12T14:15:55.471Z,96052.63
2023-02-12T14:18:40.368Z,96048.47
2023-02-12T14:21:12.725Z,96054.44
2023-02-12T14:23:42.171Z,96044.09
2023-02-12T14:26:14.425Z,96047.44
2023-02-12T14:28:54.965Z,96055.81
2023-02-12T14:31:31.445Z,96048.25
2023-02-12T14:34:11.227Z,96042.25
2023-02-12T14:36:43.943Z,96047.00
2023-02-12T14:39:19.366Z,96040.19
2023-02-12T14:41:54.956Z,96043.72
2023-02-12T14:44:23.016Z,96036.44
2023-02-12T14:46:53.847Z,96039.66
2023-02-12T14:49:34.428Z,96026.22
2023-02-12T14:52:14.705Z,96032.41
2023-02-12T14:54:49.326Z,96029.56
2023-02-12T14:57:18.540Z,96029.47
2023-02-12T14:59:46.146Z,96027.25
2023-02-12T15:02:23.126Z,96025.09
2023-02-12T15:04:53.082Z,96026.53
2023-02-12T15:07:44.439Z,96021.97
2023-02-12T15:10:23.120Z,96021.56
2023-02-12T15:13:08.591Z,96019.84
2023-02-12T15:16:08.438Z,96013.91
2023-02-12T15:18:40.780Z,96012.00
2023-02-12T15:21:19.894Z,96015.47
2023-02-12T15:23:47.666Z,96013.88
2023-02-12T15:26:20.707Z,96012.19
2023-02-12T15:28:50.232Z,96006.16
2023-02-12T15:31:20.102Z,96009.16
2023-02-12T15:33:50.648Z,96010.31
2023-02-12T15:36:26.190Z,96005.88
2023-02-12T15:38:55.937Z,96011.72
2023-02-12T15:41:41.993Z,95991.13
2023-02-12T15:44:25.997Z,95998.63
2023-02-12T15:46:54.396Z,96005.34
2023-02-12T15:49:22.357Z,96003.47
2023-02-12T15:51:48.863Z,96003.03
2023-02-12T15:54:19.639Z,96004.13
2023-02-12T15:56:46.255Z,95998.44
2023-02-12T15:59:25.193Z,96010.53
2023-02-12T16:01:56.005Z,96012.97
2023-02-12T16:04:23.265Z,96017.59
2023-02-12T16:06:50.459Z,96008.34
2023-02-12T16:09:27.462Z,96013.22
2023-02-12T16:11:55.942Z,96017.25
2023-02-12T16:14:26.546Z,96009.78
2023-02-12T16:16:55.639Z,96021.84
2023-02-12T16:19:23.299Z,96016.78
2023-02-12T16:21:54.803Z,96021.88
2023-02-12T16:24:32.276Z,96020.88
2023-02-12T16:27:07.131Z,96027.75
2023-02-12T16:29:38.076Z,96027.31
2023-02-12T16:32:04.767Z,96026.44
2023-02-12T16:34:37.320Z,96026.09
2023-02-12T16:37:35.502Z,96042.53
2023-02-12T16:40:13.589Z,96037.81
2023-02-12T16:42:56.623Z,96041.09
2023-02-12T16:45:26.506Z,96042.34
2023-02-12T16:48:18.096Z,96036.84
2023-02-12T16:50:49.486Z,96033.34
2023-02-12T16:53:24.105Z,96032.63
2023-02-12T16:55:51.108Z,96040.84
2023-02-12T16:58:17.585Z,96041.09
2023-02-12T17:00:44.265Z,96044.50
2023-02-12T17:03:13.967Z,96044.72
2023-02-12T17:05:42.675Z,96046.75
2023-02-12T17:08:17.452Z,96048.16
2023-02-12T17:10:44.757Z,96052.34
2023-02-12T17:13:11.568Z,96055.53
2023-02-12T17:15:45.071Z,96053.56
2023-02-12T17:18:12.324Z,96058.34
2023-02-12T17:20:38.859Z,96052.78
2023-02-12T17:23:05.910Z,96052.00
2023-02-12T17:25:33.915Z,96045.88
2023-02-12T17:28:00.468Z,96054.38
2023-02-12T17:30:28.894Z,96051.44
2023-02-12T17:32:55.533Z,96048.47
2023-02-12T17:35:21.957Z,96050.66
2023-02-12T17:37:48.436Z,96049.47
2023-02-12T17:40:15.154Z,96052.25
2023-02-12T17:42:41.731Z,96050.06
2023-02-12T17:45:08.623Z,96053.44
2023-02-12T17:47:39.746Z,96049.88
2023-02-12T17:50:11.576Z,96054.66
2023-02-12T17:52:38.609Z,96052.88
2023-02-12T17:55:06.271Z,96058.44
2023-02-12T17:57:33.029Z,96061.19
2023-02-12T17:59:59.677Z,96064.41
2023-02-12T18:02:26.178Z,96064.78
2023-02-12T18:04:52.640Z,96052.69
2023-02-12T18:07:19.108Z,96062.22
2023-02-12T18:09:45.572Z,96042.59
2023-02-12T18:12:12.078Z,96056.28
2023-02-12T18:14:38.800Z,96057.25
2023-02-12T18:17:05.301Z,96057.25
2023-02-12T18:19:31.771Z,96052.91
2023-02-12T18:21:58.347Z,96054.28
2023-02-12T18:24:24.814Z,96046.56
2023-02-12T18:26:51.704Z,96049.72
2023-02-12T18:29:18.207Z,96043.78
2023-02-12T18:31:44.831Z,96051.91
2023-02-12T18:34:11.359Z,96047.16
2023-02-12T18:36:37.833Z,96054.47
2023-02-12T18:39:04.447Z,96052.69
2023-02-12T18:41:32.340Z,96046.75
2023-02-12T18:43:59.419Z,96045.94
2023-02-12T18:46:28.798Z,96033.88
2023-02-12T18:48:56.311Z,96042.41
2023-02-12T18:51:26.620Z,96036.44
2023-02-12T18:54:02.461Z,96034.44
2023-02-12T18:56:30.815Z,96034.25
2023-02-12T18:58:59.106Z,96035.06
2023-02-12T19:01:27.140Z,96038.44
2023-02-12T19:03:55.712Z,96041.19
2023-02-12T19:06:26.189Z,96035.47
2023-02-12T19:08:56.841Z,96039.59
2023-02-12T19:11:23.578Z,96040.22
2023-02-12T19:13:50.075Z,96046.53
2023-02-12T19:16:18.454Z,96028.72
2023-02-12T19:18:44.913Z,96043.56
2023-02-12T19:21:13.311Z,96039.22
2023-02-12T19:23:40.438Z,96038.22
2023-02-12T19:26:10.350Z,96045.16
2023-02-12T19:28:40.534Z,96041.97
2023-02-12T19:31:15.643Z,96044.34
2023-02-12T19:33:43.509Z,96049.69
2023-02-12T19:36:12.027Z,96055.47
2023-02-12T19:38:38.725Z,96050.50
2023-02-12T19:41:08.211Z,96051.28
2023-02-12T19:43:34.771Z,96060.00
2023-02-12T19:46:06.474Z,96064.56
2023-02-12T19:48:33.300Z,96063.00
2023-02-12T19:51:00.132Z,96071.50
2023-02-12T19:53:27.218Z,96058.63
2023-02-12T19:55:53.841Z,96069.72
2023-02-12T19:58:20.902Z,96066.34
2023-02-12T20:00:47.630Z,96060.44
2023-02-12T20:03:14.109Z,96065.38
2023-02-12T20:05:51.953Z,96066.19
2023-02-12T20:08:21.238Z,96060.00
2023-02-12T20:10:47.666Z,96061.03
2023-02-12T20:13:14.104Z,96068.16
2023-02-12T20:15:40.570Z,96059.06
2023-02-12T20:18:07.724Z,96062.41
2023-02-12T20:20:35.170Z,96065.19
2023-02-12T20:23:01.819Z,96068.94
2023-02-12T20:25:28.564Z,96065.59
2023-02-12T20:27:54.991Z,96064.00
2023-02-12T20:30:21.795Z,96069.16
2023-02-12T20:32:48.274Z,96063.41
2023-02-12T20:35:15.626Z,96068.16
2023-02-12T20:37:45.448Z,96070.31
2023-02-12T20:40:12.297Z,96075.06
2023-02-12T20:42:38.749Z,96086.00
2023-02-12T20:45:05.883Z,96075.28
2023-02-12T20:47:33.994Z,96075.06
2023-02-12T20:50:00.486Z,96080.63
2023-02-12T20:52:27.193Z,96084.41
2023-02-12T20:54:53.707Z,96080.63
2023-02-12T20:57:20.152Z,96085.19
2023-02-12T20:59:48.920Z,96079.03
2023-02-12T21:02:15.892Z,96079.84
2023-02-12T21:04:42.400Z,96085.97
2023-02-12T21:07:08.826Z,96088.72
2023-02-12T21:09:35.264Z,96076.06
2023-02-12T21:12:01.692Z,96073.88
2023-02-12T21:14:28.162Z,96049.69
2023-02-12T21:16:55.808Z,96077.06
2023-02-12T21:19:24.514Z,96079.81
2023-02-12T21:21:51.343Z,96073.28
2023-02-12T21:24:21.876Z,96079.47
2023-02-12T21:26:48.814Z,96073.09
2023-02-12T21:29:15.309Z,96080.63
2023-02-12T21:31:44.698Z,96081.06
2023-02-12T21:34:16.825Z,96082.03
2023-02-12T21:36:45.430Z,96080.44
2023-02-12T21:39:14.997Z,96083.81
2023-02-12T21:41:42.797Z,96079.44
2023-02-12T21:44:15.645Z,96076.28
2023-02-12T21:46:42.818Z,96079.06
2023-02-12T21:49:11.696Z,96075.50
2023-02-12T21:51:43.848Z,96075.50
2023-02-12T21:54:15.341Z,96072.34
2023-02-12T21:56:42.944Z,96083.84
2023-02-12T21:59:10.124Z,96071.53
2023-02-12T22:01:39.552Z,96076.91
2023-02-12T22:04:07.154Z,96084.00
2023-02-12T22:06:37.840Z,96084.00
2023-02-12T22:09:08.692Z,96077.50
2023-02-12T22:11:36.568Z,96077.47
2023-02-12T22:14:04.391Z,96075.69
2023-02-12T22:16:31.430Z,96078.25
2023-02-12T22:19:00.204Z,96075.69
2023-02-12T22:21:29.143Z,96064.59
2023-02-12T22:23:56.437Z,96066.97
2023-02-12T22:26:25.218Z,96065.38
2023-02-12T22:29:00.990Z,96064.81
2023-02-12T22:31:30.813Z,96067.56
2023-02-12T22:34:02.031Z,96070.13
2023-02-12T22:36:29.522Z,96067.56
2023-02-12T22:38:59.629Z,96072.91
2023-02-12T22:41:27.192Z,96073.13
2023-02-12T22:43:54.001Z,96070.75
2023-02-12T22:46:20.446Z,96069.75
2023-02-12T22:48:46.915Z,96071.53
2023-02-12T22:51:18.608Z,96076.69
2023-02-12T22:53:45.414Z,96076.69
2023-02-12T22:56:14.958Z,96077.50
2023-02-12T22:58:41.804Z,96073.91
2023-02-12T23:01:11.345Z,96071.53
2023-02-12T23:03:37.934Z,96085.41
2023-02-12T23:06:07.313Z,96085.41
2023-02-12T23:08:34.927Z,96084.41
2023-02-12T23:11:01.759Z,96076.09
2023-02-12T23:13:30.343Z,96079.84
2023-02-12T23:15:57.844Z,96083.22
2023-02-12T23:18:25.746Z,96086.19
2023-02-12T23:20:53.242Z,96081.03
2023-02-12T23:23:21.205Z,96075.31
2023-02-12T23:25:48.118Z,96071.13
2023-02-12T23:28:15.604Z,96076.88
2023-02-12T23:30:42.215Z,96074.28
2023-02-12T23:33:09.072Z,96064.19
2023-02-12T23:35:35.500Z,96062.44
2023-02-12T23:38:01.983Z,96062.03
2023-02-12T23:40:28.375Z,96068.78
2023-02-12T23:42:54.744Z,96066.38
2023-02-12T23:45:21.131Z,96069.34
2023-02-12T23:47:47.526Z,96071.13
2023-02-12T23:50:14.008Z,96065.00
2023-02-12T23:52:40.457Z,96055.69
2023-02-12T23:55:07.483Z,96064.00
2023-02-12T23:57:34.007Z,96065.97
